Holly Ann — WDE9094 — position and weather

sailwx.info

Track history (hours):
 
Tides and Currents Weather Stations Pressure Air Temp Water Temp Dewpoint Dewpoint Depression Visibility Wind Speed Wind Dir Waves Ship Positions

Holly Ann

Owner: Manke Tug and Barge Co., Inc., Shelton, WA. More information available from US FCC via Universal Licensing System and Coast Guard Vessel Documentation Center.

Last reported at 2015-Jul-29 06:33 UTC. Time now 2015-Jul-30 20:17 UTC.
Position N 47°12' W 122°37'.

; draft 4.5 m.

Type: Towing. MMSI: 367413350.

Date/timePositionNaut miles runAvg speedWind from/ knotsBaromVisibWave heightAir tempDewpointWater temp
2015-Jul-29 06:33N 47°12' W 122°37'8 8.0
2015-Jul-29 05:34N 47°20' W 122°33'8 8.1
2015-Jul-29 04:34N 47°28' W 122°31'0 8.2
2015-Jul-29 04:31N 47°28' W 122°30'8 7.8
2015-Jul-29 03:33N 47°35' W 122°26'0 8.3
2015-Jul-29 03:31N 47°35' W 122°25'4 4.2
2015-Jul-29 02:33N 47°33' W 122°20'0 0.0
2015-Jul-29 02:31N 47°33' W 122°20'0 0.0
2015-Jul-29 01:34N 47°33' W 122°20'0 0.0
2015-Jul-29 01:31N 47°33' W 122°20'0 0.0
2015-Jul-29 00:33N 47°33' W 122°20'0 0.0
2015-Jul-29 00:30N 47°33' W 122°20'0 0.0
2015-Jul-28 23:33N 47°33' W 122°20'0 0.0
2015-Jul-28 23:31N 47°33' W 122°20'0 0.0
2015-Jul-28 22:34N 47°33' W 122°20'0 0.0
2015-Jul-28 22:30N 47°33' W 122°20'0 0.0
2015-Jul-28 21:33N 47°33' W 122°20'0 0.0
2015-Jul-28 21:25N 47°33' W 122°20'0 0.0
2015-Jul-28 20:33N 47°33' W 122°20'0 0.0
2015-Jul-28 20:15N 47°33' W 122°20'0 0.0
2015-Jul-28 19:30N 47°33' W 122°20'0 0.0
2015-Jul-28 19:30N 47°33' W 122°20'0 0.0
2015-Jul-28 18:32N 47°33' W 122°20'0 0.0
2015-Jul-28 18:10N 47°33' W 122°20'0 0.0
2015-Jul-28 17:29N 47°33' W 122°20'0 0.0
2015-Jul-28 16:33N 47°33' W 122°20'0 0.0
2015-Jul-28 16:29N 47°33' W 122°20'0 0.0
2015-Jul-28 15:33N 47°33' W 122°20'0 0.0
2015-Jul-28 15:29N 47°33' W 122°20'0 0.0
2015-Jul-28 14:32N 47°33' W 122°20'0 0.0
2015-Jul-28 14:23N 47°33' W 122°20'0 0.0
2015-Jul-28 13:33N 47°33' W 122°20'0 0.0
2015-Jul-28 13:29N 47°33' W 122°20'0 0.0
2015-Jul-28 12:33N 47°33' W 122°20'0 0.0
2015-Jul-28 12:29N 47°33' W 122°20'0 0.0
2015-Jul-28 11:33N 47°33' W 122°20'0 0.0
2015-Jul-28 11:28N 47°33' W 122°20'0 0.0
2015-Jul-28 10:33N 47°33' W 122°20'0 0.0
2015-Jul-28 10:29N 47°33' W 122°20'0 0.0
2015-Jul-28 09:33N 47°33' W 122°20'0 0.0
2015-Jul-28 09:29N 47°33' W 122°20'0 0.0
2015-Jul-28 08:33N 47°33' W 122°20'0 0.0
2015-Jul-28 08:29N 47°33' W 122°20'0 0.0
2015-Jul-28 07:33N 47°33' W 122°20'0 0.0
2015-Jul-28 07:29N 47°33' W 122°20'0 0.4
2015-Jul-28 06:33N 47°33' W 122°20'0 0.0
2015-Jul-28 06:33N 47°33' W 122°20'2 4.0
2015-Jul-28 06:08N 47°35' W 122°22'2 4.0
2015-Jul-28 05:33N 47°35' W 122°25'7 7.4
2015-Jul-28 04:33N 47°29' W 122°30'7 7.4
2015-Jul-28 03:34N 47°21' W 122°32'8 7.8
2015-Jul-28 02:33N 47°14' W 122°35'  
2015-Jul-24 02:08N 47°12' W 122°39'5 8.4
2015-Jul-24 01:34N 47°15' W 122°34'9 8.4
2015-Jul-24 00:31N 47°24' W 122°32'1 8.4
2015-Jul-24 00:27N 47°24' W 122°32'7 7.7
2015-Jul-23 23:33N 47°31' W 122°29'0 7.0
2015-Jul-23 23:32N 47°31' W 122°29'7 6.7
2015-Jul-23 22:33N 47°35' W 122°22'0 8.4
2015-Jul-23 22:32N 47°35' W 122°22'2 1.8
2015-Jul-23 21:34N 47°33' W 122°21'0 0.0
2015-Jul-23 21:30N 47°33' W 122°21'0 0.0
2015-Jul-23 20:33N 47°33' W 122°21'0 0.0
2015-Jul-23 20:29N 47°33' W 122°21'0 0.0
2015-Jul-23 19:27N 47°33' W 122°21'0 0.0
2015-Jul-23 19:24N 47°33' W 122°21'0 0.0
2015-Jul-23 18:34N 47°33' W 122°21'0 0.0
2015-Jul-23 18:33N 47°33' W 122°21'0 0.0
2015-Jul-23 17:34N 47°33' W 122°21'0 0.0
2015-Jul-23 17:33N 47°33' W 122°21'0 0.0
2015-Jul-23 16:34N 47°33' W 122°21'0 0.0
2015-Jul-23 16:31N 47°33' W 122°21'0 0.0
2015-Jul-23 15:34N 47°33' W 122°21'0 0.0
2015-Jul-23 15:31N 47°33' W 122°21'0 0.0
2015-Jul-23 14:34N 47°33' W 122°21'0 0.0
2015-Jul-23 14:31N 47°33' W 122°21'0 0.0
2015-Jul-23 13:34N 47°33' W 122°21'0 0.0
2015-Jul-23 13:31N 47°33' W 122°21'0 0.1
2015-Jul-23 12:34N 47°33' W 122°21'2 3.3
2015-Jul-23 11:54N 47°35' W 122°22'2 5.5
2015-Jul-23 11:34N 47°36' W 122°25'0 5.4
2015-Jul-23 11:34N 47°36' W 122°25'7 7.1
2015-Jul-23 10:34N 47°29' W 122°30'0 7.7
2015-Jul-23 10:32N 47°29' W 122°30'8 8.1
2015-Jul-23 09:33N 47°21' W 122°32'9 9.2
2015-Jul-23 08:34N 47°13' W 122°36'7 7.4
2015-Jul-23 07:33N 47°09' W 122°46'  
Track history (hours):
 
Tides and Currents Weather Stations Pressure Air Temp Water Temp Dewpoint Dewpoint Depression Visibility Wind Speed Wind Dir Waves Ship Positions

Holly Ann

Owner: Manke Tug and Barge Co., Inc., Shelton, WA. More information available from US FCC via Universal Licensing System and Coast Guard Vessel Documentation Center.

Last reported at 2015-Jul-29 06:33 UTC. Time now 2015-Jul-30 20:18 UTC.
Position N 47°12' W 122°37'.

; draft 4.5 m.

Type: Towing. MMSI: 367413350.

Date/timePositionNaut miles runAvg speedWind from/ knotsBaromVisibWave heightAir tempDewpointWater temp
2015-Jul-29 06:33N 47°12' W 122°37'8 8.0
2015-Jul-29 05:34N 47°20' W 122°33'8 8.1
2015-Jul-29 04:34N 47°28' W 122°31'0 8.2
2015-Jul-29 04:31N 47°28' W 122°30'8 7.8
2015-Jul-29 03:33N 47°35' W 122°26'0 8.3
2015-Jul-29 03:31N 47°35' W 122°25'4 4.2
2015-Jul-29 02:33N 47°33' W 122°20'0 0.0
2015-Jul-29 02:31N 47°33' W 122°20'0 0.0
2015-Jul-29 01:34N 47°33' W 122°20'0 0.0
2015-Jul-29 01:31N 47°33' W 122°20'0 0.0
2015-Jul-29 00:33N 47°33' W 122°20'0 0.0
2015-Jul-29 00:30N 47°33' W 122°20'0 0.0
2015-Jul-28 23:33N 47°33' W 122°20'0 0.0
2015-Jul-28 23:31N 47°33' W 122°20'0 0.0
2015-Jul-28 22:34N 47°33' W 122°20'0 0.0
2015-Jul-28 22:30N 47°33' W 122°20'0 0.0
2015-Jul-28 21:33N 47°33' W 122°20'0 0.0
2015-Jul-28 21:25N 47°33' W 122°20'0 0.0
2015-Jul-28 20:33N 47°33' W 122°20'0 0.0
2015-Jul-28 20:15N 47°33' W 122°20'0 0.0
2015-Jul-28 19:30N 47°33' W 122°20'0 0.0
2015-Jul-28 19:30N 47°33' W 122°20'0 0.0
2015-Jul-28 18:32N 47°33' W 122°20'0 0.0
2015-Jul-28 18:10N 47°33' W 122°20'0 0.0
2015-Jul-28 17:29N 47°33' W 122°20'0 0.0
2015-Jul-28 16:33N 47°33' W 122°20'0 0.0
2015-Jul-28 16:29N 47°33' W 122°20'0 0.0
2015-Jul-28 15:33N 47°33' W 122°20'0 0.0
2015-Jul-28 15:29N 47°33' W 122°20'0 0.0
2015-Jul-28 14:32N 47°33' W 122°20'0 0.0
2015-Jul-28 14:23N 47°33' W 122°20'0 0.0
2015-Jul-28 13:33N 47°33' W 122°20'0 0.0
2015-Jul-28 13:29N 47°33' W 122°20'0 0.0
2015-Jul-28 12:33N 47°33' W 122°20'0 0.0
2015-Jul-28 12:29N 47°33' W 122°20'0 0.0
2015-Jul-28 11:33N 47°33' W 122°20'0 0.0
2015-Jul-28 11:28N 47°33' W 122°20'0 0.0
2015-Jul-28 10:33N 47°33' W 122°20'0 0.0
2015-Jul-28 10:29N 47°33' W 122°20'0 0.0
2015-Jul-28 09:33N 47°33' W 122°20'0 0.0
2015-Jul-28 09:29N 47°33' W 122°20'0 0.0
2015-Jul-28 08:33N 47°33' W 122°20'0 0.0
2015-Jul-28 08:29N 47°33' W 122°20'0 0.0
2015-Jul-28 07:33N 47°33' W 122°20'0 0.0
2015-Jul-28 07:29N 47°33' W 122°20'0 0.4
2015-Jul-28 06:33N 47°33' W 122°20'0 0.0
2015-Jul-28 06:33N 47°33' W 122°20'2 4.0
2015-Jul-28 06:08N 47°35' W 122°22'2 4.0
2015-Jul-28 05:33N 47°35' W 122°25'7 7.4
2015-Jul-28 04:33N 47°29' W 122°30'7 7.4
2015-Jul-28 03:34N 47°21' W 122°32'8 7.8
2015-Jul-28 02:33N 47°14' W 122°35'  
2015-Jul-24 02:08N 47°12' W 122°39'5 8.4
2015-Jul-24 01:34N 47°15' W 122°34'9 8.4
2015-Jul-24 00:31N 47°24' W 122°32'1 8.4
2015-Jul-24 00:27N 47°24' W 122°32'7 7.7
2015-Jul-23 23:33N 47°31' W 122°29'0 7.0
2015-Jul-23 23:32N 47°31' W 122°29'7 6.7
2015-Jul-23 22:33N 47°35' W 122°22'0 8.4
2015-Jul-23 22:32N 47°35' W 122°22'2 1.8
2015-Jul-23 21:34N 47°33' W 122°21'0 0.0
2015-Jul-23 21:30N 47°33' W 122°21'0 0.0
2015-Jul-23 20:33N 47°33' W 122°21'0 0.0
2015-Jul-23 20:29N 47°33' W 122°21'0 0.0
2015-Jul-23 19:27N 47°33' W 122°21'0 0.0
2015-Jul-23 19:24N 47°33' W 122°21'0 0.0
2015-Jul-23 18:34N 47°33' W 122°21'0 0.0
2015-Jul-23 18:33N 47°33' W 122°21'0 0.0
2015-Jul-23 17:34N 47°33' W 122°21'0 0.0
2015-Jul-23 17:33N 47°33' W 122°21'0 0.0
2015-Jul-23 16:34N 47°33' W 122°21'0 0.0
2015-Jul-23 16:31N 47°33' W 122°21'0 0.0
2015-Jul-23 15:34N 47°33' W 122°21'0 0.0
2015-Jul-23 15:31N 47°33' W 122°21'0 0.0
2015-Jul-23 14:34N 47°33' W 122°21'0 0.0
2015-Jul-23 14:31N 47°33' W 122°21'0 0.0
2015-Jul-23 13:34N 47°33' W 122°21'0 0.0
2015-Jul-23 13:31N 47°33' W 122°21'0 0.1
2015-Jul-23 12:34N 47°33' W 122°21'2 3.3
2015-Jul-23 11:54N 47°35' W 122°22'2 5.5
2015-Jul-23 11:34N 47°36' W 122°25'0 5.4
2015-Jul-23 11:34N 47°36' W 122°25'7 7.1
2015-Jul-23 10:34N 47°29' W 122°30'0 7.7
2015-Jul-23 10:32N 47°29' W 122°30'8 8.1
2015-Jul-23 09:33N 47°21' W 122°32'9 9.2
2015-Jul-23 08:34N 47°13' W 122°36'7 7.4
2015-Jul-23 07:33N 47°09' W 122°46'  

Dump ship's entire track history